createdAt,value
2018-02-09T00:00:15.042Z,36.13
2018-02-09T00:02:42.562Z,35.40
2018-02-09T00:05:10.122Z,31.77
2018-02-09T00:07:37.681Z,34.93
2018-02-09T00:10:05.241Z,32.17
2018-02-09T00:12:32.800Z,32.37
2018-02-09T00:15:00.361Z,32.60
2018-02-09T00:17:27.857Z,34.27
2018-02-09T00:19:55.312Z,33.50
2018-02-09T00:22:28.677Z,31.40
2018-02-09T00:24:56.233Z,31.50
2018-02-09T00:27:24.710Z,32.70
2018-02-09T00:29:52.111Z,33.07
2018-02-09T00:32:19.624Z,31.93
2018-02-09T00:34:47.184Z,32.90
2018-02-09T00:37:14.744Z,29.17
2018-02-09T00:39:42.303Z,33.10
2018-02-09T00:42:09.862Z,33.00
2018-02-09T00:44:37.355Z,33.97
2018-02-09T00:47:08.054Z,32.40
2018-02-09T00:49:35.612Z,31.70
2018-02-09T00:52:03.172Z,32.50
2018-02-09T00:54:30.583Z,31.80
2018-02-09T00:56:58.189Z,31.73
2018-02-09T00:59:25.684Z,32.33
2018-02-09T01:01:53.205Z,30.57
2018-02-09T01:04:20.765Z,30.70
2018-02-09T01:06:48.222Z,30.47
2018-02-09T01:09:15.717Z,32.23
2018-02-09T01:11:43.174Z,32.87
2018-02-09T01:14:10.797Z,32.37
2018-02-09T01:16:38.255Z,32.27
2018-02-09T01:19:05.748Z,30.90
2018-02-09T01:21:33.204Z,30.60
2018-02-09T01:24:00.625Z,30.50
2018-02-09T01:26:28.185Z,31.03
2018-02-09T01:28:55.781Z,31.70
2018-02-09T01:31:23.406Z,29.87
2018-02-09T01:33:50.971Z,31.30
2018-02-09T01:36:18.424Z,31.27
2018-02-09T01:38:45.917Z,28.93
2018-02-09T01:41:13.371Z,31.20
2018-02-09T01:43:40.832Z,32.00
2018-02-09T01:46:08.235Z,31.87
2018-02-09T01:48:35.912Z,31.00
2018-02-09T01:51:03.374Z,31.07
2018-02-09T01:53:30.930Z,30.10
2018-02-09T01:55:58.489Z,29.77
2018-02-09T01:58:26.049Z,29.30
2018-02-09T02:00:53.608Z,30.03
2018-02-09T02:03:21.168Z,29.07
2018-02-09T02:05:48.660Z,31.57
2018-02-09T02:08:16.184Z,29.67
2018-02-09T02:10:43.846Z,29.67
2018-02-09T02:13:11.410Z,29.60
2018-02-09T02:15:38.964Z,28.97
2018-02-09T02:18:06.524Z,30.20
2018-02-09T02:20:34.087Z,29.73
2018-02-09T02:23:01.644Z,27.87
2018-02-09T02:25:29.203Z,30.43
2018-02-09T02:27:56.763Z,30.87
2018-02-09T02:30:24.320Z,28.23
2018-02-09T02:32:51.752Z,30.50
2018-02-09T02:35:19.274Z,28.27
2018-02-09T02:37:46.795Z,27.00
2018-02-09T02:40:14.355Z,30.40
2018-02-09T02:42:41.850Z,30.33
2018-02-09T02:45:09.309Z,31.63
2018-02-09T02:47:36.829Z,28.50
2018-02-09T02:50:04.387Z,29.83
2018-02-09T02:52:31.947Z,29.10
2018-02-09T02:54:59.440Z,28.20
2018-02-09T02:57:26.965Z,29.70
2018-02-09T02:59:54.522Z,31.00
2018-02-09T03:02:22.124Z,29.17
2018-02-09T03:04:49.643Z,28.50
2018-02-09T03:07:17.132Z,30.27
2018-02-09T03:09:44.659Z,28.23
2018-02-09T03:12:12.153Z,29.00
2018-02-09T03:14:39.588Z,28.23
2018-02-09T03:17:07.134Z,28.50
2018-02-09T03:19:34.690Z,27.93
2018-02-09T03:22:02.250Z,28.60
2018-02-09T03:24:29.809Z,26.77
2018-02-09T03:26:57.303Z,27.37
2018-02-09T03:29:24.827Z,26.60
2018-02-09T03:31:52.489Z,29.20
2018-02-09T03:34:20.048Z,27.57
2018-02-09T03:36:47.541Z,27.20
2018-02-09T03:39:15.000Z,26.47
2018-02-09T03:41:42.521Z,26.47
2018-02-09T03:44:10.593Z,28.90
2018-02-09T03:46:38.255Z,29.00
2018-02-09T03:49:05.667Z,26.43
2018-02-09T03:51:33.168Z,28.70
2018-02-09T03:54:00.731Z,28.70
2018-02-09T03:56:28.221Z,29.10
2018-02-09T03:58:55.847Z,28.60
2018-02-09T04:01:23.407Z,29.13
2018-02-09T04:03:50.812Z,30.17
2018-02-09T04:06:18.453Z,30.27
2018-02-09T04:08:45.983Z,29.67
2018-02-09T04:11:13.476Z,27.43
2018-02-09T04:13:40.999Z,29.20
2018-02-09T04:16:08.493Z,31.70
2018-02-09T04:18:36.016Z,29.47
2018-02-09T04:21:03.575Z,28.67
2018-02-09T04:23:31.136Z,29.57
2018-02-09T04:25:58.694Z,30.60
2018-02-09T04:28:26.254Z,30.93
2018-02-09T04:30:53.710Z,29.17
2018-02-09T04:36:05.864Z,32.30
2018-02-09T04:38:33.387Z,30.50
2018-02-09T04:41:00.844Z,30.60
2018-02-09T04:43:28.506Z,26.57
2018-02-09T04:45:56.065Z,29.83
2018-02-09T04:48:23.627Z,30.30
2018-02-09T04:50:52.311Z,31.40
2018-02-09T04:53:19.874Z,30.80
2018-02-09T04:55:53.782Z,28.87
2018-02-09T04:58:21.209Z,29.07
2018-02-09T05:00:48.798Z,30.07
2018-02-09T05:03:16.358Z,30.83
2018-02-09T05:05:43.848Z,30.80
2018-02-09T05:08:11.371Z,29.20
2018-02-09T05:10:38.930Z,32.07
2018-02-09T05:13:06.490Z,30.60
2018-02-09T05:15:34.049Z,32.50
2018-02-09T05:18:01.610Z,32.57
2018-02-09T05:20:29.067Z,32.00
2018-02-09T05:22:56.626Z,30.80
2018-02-09T05:25:24.119Z,32.90
2018-02-09T05:27:51.643Z,31.70
2018-02-09T05:30:19.201Z,31.80
2018-02-09T05:32:46.761Z,34.90
2018-02-09T05:35:14.423Z,33.90
2018-02-09T05:37:41.984Z,31.90
2018-02-09T05:40:09.543Z,33.60
2018-02-09T05:42:36.999Z,32.93
2018-02-09T05:45:04.491Z,33.57
2018-02-09T05:47:32.021Z,36.10
2018-02-09T05:49:59.779Z,34.97
2018-02-09T05:55:19.166Z,35.00
2018-02-09T06:00:31.864Z,34.23
2018-02-09T06:02:59.294Z,36.77
2018-02-09T06:05:26.814Z,37.40
2018-02-09T06:07:54.372Z,36.73
2018-02-09T06:10:21.788Z,36.20
2018-02-09T06:12:49.286Z,37.00
2018-02-09T06:15:16.846Z,37.60
2018-02-09T06:17:44.406Z,37.97
2018-02-09T06:20:11.973Z,36.83
2018-02-09T06:22:39.524Z,35.57
2018-02-09T06:25:06.983Z,38.97
2018-02-09T06:27:34.477Z,38.07
2018-02-09T06:30:02.100Z,37.20
2018-02-09T06:32:29.519Z,38.10
2018-02-09T06:34:57.117Z,35.50
2018-02-09T06:37:24.780Z,37.60
2018-02-09T06:39:52.338Z,38.10
2018-02-09T06:42:19.899Z,36.70
2018-02-09T06:44:47.403Z,38.90
2018-02-09T06:47:15.018Z,36.50
2018-02-09T06:49:42.474Z,41.13
2018-02-09T06:52:10.033Z,38.97
2018-02-09T06:54:37.593Z,41.97
2018-02-09T06:57:05.151Z,41.70
2018-02-09T06:59:32.711Z,41.87
2018-02-09T07:02:00.274Z,40.97
2018-02-09T07:04:27.830Z,46.30
2018-02-09T07:06:55.496Z,44.10
2018-02-09T07:09:22.988Z,43.53
2018-02-09T07:11:50.509Z,42.93
2018-02-09T07:14:18.068Z,42.00
2018-02-09T07:16:45.627Z,41.97
2018-02-09T07:19:13.084Z,41.43
2018-02-09T07:21:40.644Z,39.27
2018-02-09T07:24:08.203Z,42.50
2018-02-09T07:26:35.762Z,39.33
2018-02-09T07:29:03.256Z,37.37
2018-02-09T07:31:30.779Z,41.43
2018-02-09T07:33:58.251Z,42.17
2018-02-09T07:36:25.797Z,37.20
2018-02-09T07:38:53.356Z,39.50
2018-02-09T07:41:20.914Z,39.43
2018-02-09T07:43:48.475Z,40.00
2018-02-09T07:46:15.969Z,41.10
2018-02-09T07:48:43.491Z,39.43
2018-02-09T07:51:11.051Z,37.77
2018-02-09T07:53:38.610Z,37.80
2018-02-09T07:56:06.104Z,36.43
2018-02-09T07:58:33.664Z,37.27
2018-02-09T08:01:01.185Z,36.60
2018-02-09T08:03:28.692Z,37.70
2018-02-09T08:05:56.205Z,37.03
2018-02-09T08:08:23.762Z,41.73
2018-02-09T08:10:51.321Z,36.83
2018-02-09T08:13:18.880Z,37.43
2018-02-09T08:15:46.316Z,37.80
2018-02-09T08:18:13.802Z,38.27
2018-02-09T08:20:41.354Z,39.97
2018-02-09T08:23:08.849Z,39.57
2018-02-09T08:25:36.304Z,43.07
2018-02-09T08:28:03.828Z,40.33
2018-02-09T08:30:31.387Z,40.40
2018-02-09T08:32:58.947Z,40.00
2018-02-09T08:35:26.406Z,40.27
2018-02-09T08:37:53.963Z,40.57
2018-02-09T08:40:21.404Z,39.27
2018-02-09T08:42:49.082Z,39.67
2018-02-09T08:45:16.641Z,40.83
2018-02-09T08:47:44.200Z,37.53
2018-02-09T08:50:11.696Z,39.77
2018-02-09T08:52:39.217Z,40.67
2018-02-09T08:55:06.776Z,40.43
2018-02-09T08:57:35.088Z,39.93
2018-02-09T09:00:02.615Z,40.53
2018-02-09T09:02:30.173Z,40.40
2018-02-09T09:04:57.733Z,43.40
2018-02-09T09:07:25.190Z,42.57
2018-02-09T09:09:52.748Z,42.73
2018-02-09T09:12:20.308Z,44.47
2018-02-09T09:14:48.379Z,43.10
2018-02-09T09:17:15.939Z,44.07
2018-02-09T09:19:43.498Z,44.57
2018-02-09T09:22:10.993Z,42.53
2018-02-09T09:24:38.514Z,42.27
2018-02-09T09:27:06.008Z,41.57
2018-02-09T09:29:33.636Z,40.40
2018-02-09T09:32:01.193Z,41.97
2018-02-09T09:34:28.600Z,40.70
2018-02-09T09:36:56.210Z,37.63
2018-02-09T09:39:23.786Z,41.43
2018-02-09T09:41:51.265Z,38.77
2018-02-09T09:44:18.720Z,40.00
2018-02-09T09:46:46.241Z,39.90
2018-02-09T09:49:13.708Z,41.50
2018-02-09T09:51:41.258Z,41.33
2018-02-09T09:54:08.757Z,41.90
2018-02-09T09:56:36.325Z,39.80
2018-02-09T09:59:03.873Z,39.50
2018-02-09T10:01:31.496Z,38.20
2018-02-09T10:03:59.057Z,36.20
2018-02-09T10:06:26.552Z,36.93
2018-02-09T10:08:54.892Z,39.17
2018-02-09T10:11:22.390Z,37.00
2018-02-09T10:13:49.909Z,38.20
2018-02-09T10:16:17.467Z,40.40
2018-02-09T10:18:45.089Z,40.53
2018-02-09T10:21:12.526Z,42.17
2018-02-09T10:23:40.043Z,39.73
2018-02-09T10:26:07.603Z,40.30
2018-02-09T10:28:35.100Z,42.47
2018-02-09T10:31:02.622Z,41.57
2018-02-09T10:33:30.178Z,41.47
2018-02-09T10:35:57.739Z,37.67
2018-02-09T10:38:25.297Z,38.40
2018-02-09T10:40:52.857Z,32.70
2018-02-09T10:43:20.417Z,32.83
2018-02-09T10:45:47.913Z,35.37
2018-02-09T10:48:15.536Z,34.37
2018-02-09T10:50:43.056Z,36.63
2018-02-09T10:53:10.655Z,34.77
2018-02-09T10:55:54.804Z,33.53
2018-02-09T10:58:22.363Z,35.30
2018-02-09T11:00:55.707Z,35.23
2018-02-09T11:03:23.216Z,36.63
2018-02-09T11:05:50.808Z,33.93
2018-02-09T11:08:18.438Z,31.40
2018-02-09T11:10:48.659Z,33.50
2018-02-09T11:13:16.218Z,36.10
2018-02-09T11:15:43.816Z,30.00
2018-02-09T11:18:11.337Z,32.37
2018-02-09T11:20:38.919Z,32.70
2018-02-09T11:23:06.457Z,31.07
2018-02-09T11:25:33.913Z,30.80
2018-02-09T11:28:01.473Z,33.53
2018-02-09T11:30:29.037Z,32.47
2018-02-09T11:32:56.594Z,32.80
2018-02-09T11:35:24.151Z,31.83
2018-02-09T11:37:51.609Z,32.13
2018-02-09T11:40:19.170Z,32.60
2018-02-09T11:42:46.661Z,32.17
2018-02-09T11:45:14.188Z,31.13
2018-02-09T11:47:41.749Z,32.07
2018-02-09T11:50:09.302Z,31.93
2018-02-09T11:52:36.863Z,32.50
2018-02-09T11:55:04.356Z,32.40
2018-02-09T11:57:31.879Z,30.40
2018-02-09T11:59:59.439Z,31.17
2018-02-09T12:02:26.932Z,30.67
2018-02-09T12:04:54.455Z,28.43
2018-02-09T12:07:22.014Z,28.90
2018-02-09T12:09:49.574Z,30.80
2018-02-09T12:12:17.133Z,30.37
2018-02-09T12:14:44.693Z,43.10
2018-02-09T12:17:12.252Z,30.57
2018-02-09T12:19:39.811Z,32.80
2018-02-09T12:22:07.310Z,31.80
2018-02-09T12:24:34.827Z,31.23
2018-02-09T12:27:02.387Z,31.07
2018-02-09T12:29:29.947Z,31.47
2018-02-09T12:31:57.404Z,34.47
2018-02-09T12:34:24.965Z,32.03
2018-02-09T12:36:52.524Z,32.30
2018-02-09T12:39:20.016Z,31.07
2018-02-09T12:41:47.641Z,33.03
2018-02-09T12:44:15.201Z,31.40
2018-02-09T12:46:42.760Z,32.90
2018-02-09T12:49:10.320Z,32.37
2018-02-09T12:51:37.880Z,32.03
2018-02-09T12:54:06.155Z,32.43
2018-02-09T12:56:33.649Z,31.90
2018-02-09T12:59:01.889Z,33.27
2018-02-09T13:01:29.449Z,31.73
2018-02-09T13:03:57.008Z,32.53
2018-02-09T13:06:24.568Z,34.50
2018-02-09T13:08:52.127Z,32.07
2018-02-09T13:11:19.620Z,33.10
2018-02-09T13:13:47.058Z,31.97
2018-02-09T13:16:14.498Z,34.57
2018-02-09T13:18:47.829Z,32.80
2018-02-09T13:21:15.354Z,33.10
2018-02-09T13:23:48.749Z,31.93
2018-02-09T13:26:16.308Z,33.87
2018-02-09T13:28:49.740Z,34.80
2018-02-09T13:31:17.468Z,33.40
2018-02-09T13:33:45.027Z,34.20
2018-02-09T13:36:16.201Z,34.53
2018-02-09T13:53:25.388Z,36.10
2018-02-09T13:55:52.893Z,37.30
2018-02-09T13:58:20.416Z,35.80
2018-02-09T14:00:48.079Z,37.33
2018-02-09T14:27:44.884Z,38.80
2018-02-09T14:30:12.443Z,42.07
2018-02-09T14:32:40.003Z,41.30
2018-02-09T14:35:07.407Z,41.53
2018-02-09T14:37:34.854Z,41.73
2018-02-09T14:40:02.373Z,41.10
2018-02-09T14:42:29.785Z,40.60
2018-02-09T14:44:57.389Z,41.47
2018-02-09T14:47:24.954Z,38.33
2018-02-09T14:49:52.509Z,41.27
2018-02-09T14:52:20.171Z,38.60
2018-02-09T14:54:47.666Z,40.57
2018-02-09T14:57:15.084Z,39.60
2018-02-09T14:59:42.542Z,41.37
2018-02-09T15:02:10.048Z,41.50
2018-02-09T15:04:37.557Z,41.33
2018-02-09T15:07:05.004Z,40.67
2018-02-09T15:09:32.507Z,41.37
2018-02-09T15:11:59.943Z,41.87
2018-02-09T15:14:27.424Z,41.83
2018-02-09T15:16:55.047Z,41.10
2018-02-09T15:19:22.608Z,40.10
2018-02-09T15:21:50.021Z,41.10
2018-02-09T15:24:17.629Z,40.90
2018-02-09T15:26:45.082Z,42.43
2018-02-09T15:29:12.641Z,41.30
2018-02-09T15:31:40.236Z,41.50
2018-02-09T15:34:07.697Z,41.23
2018-02-09T15:36:35.114Z,41.80
2018-02-09T15:39:02.674Z,41.90
2018-02-09T15:41:30.088Z,40.07
2018-02-09T15:43:57.623Z,40.07
2018-02-09T15:46:25.250Z,40.40
2018-02-09T15:48:52.809Z,40.80
2018-02-09T15:51:20.369Z,38.80
2018-02-09T15:53:47.929Z,40.97
2018-02-09T15:56:15.488Z,40.50
2018-02-09T15:58:43.150Z,39.00
2018-02-09T16:01:10.708Z,41.77
2018-02-09T16:03:38.268Z,41.67
2018-02-09T16:06:05.826Z,39.73
2018-02-09T16:08:33.320Z,41.63
2018-02-09T16:11:00.843Z,39.40
2018-02-09T16:13:28.402Z,40.13
2018-02-09T16:15:55.968Z,40.43
2018-02-09T16:18:23.469Z,39.70
2018-02-09T16:20:50.964Z,42.30
2018-02-09T16:23:18.538Z,42.70
2018-02-09T16:25:46.040Z,40.23
2018-02-09T16:28:13.659Z,39.37
2018-02-09T16:30:41.152Z,41.20
2018-02-09T16:33:08.712Z,39.60
2018-02-09T16:35:36.233Z,39.47
2018-02-09T16:38:03.739Z,41.37
2018-02-09T16:40:31.352Z,42.30
2018-02-09T16:42:58.912Z,41.67
2018-02-09T16:45:26.328Z,42.70
2018-02-09T16:47:53.863Z,41.10
2018-02-09T16:50:21.488Z,41.53
2018-02-09T16:52:49.047Z,38.83
2018-02-09T16:55:17.019Z,40.63
2018-02-09T16:57:44.576Z,39.00
2018-02-09T17:00:12.136Z,41.97
2018-02-09T17:02:39.627Z,40.67
2018-02-09T17:05:10.532Z,43.13
2018-02-09T17:07:38.090Z,40.40
2018-02-09T17:10:05.500Z,42.03
2018-02-09T17:12:33.107Z,41.80
2018-02-09T17:15:00.666Z,43.17
2018-02-09T17:17:28.226Z,42.67
2018-02-09T17:19:55.788Z,43.20
2018-02-09T17:22:23.281Z,43.63
2018-02-09T17:24:50.802Z,44.13
2018-02-09T17:27:18.362Z,43.10
2018-02-09T17:29:46.076Z,40.40
2018-02-09T17:32:13.583Z,42.33
2018-02-09T17:34:41.247Z,40.40
2018-02-09T17:37:08.805Z,41.90
2018-02-09T17:39:36.301Z,40.97
2018-02-09T17:42:03.923Z,40.43
2018-02-09T17:44:31.482Z,41.13
2018-02-09T17:46:59.043Z,40.70
2018-02-09T17:49:26.600Z,40.87
2018-02-09T17:51:54.098Z,40.43
2018-02-09T17:54:21.822Z,40.17
2018-02-09T17:56:49.382Z,41.70
2018-02-09T17:59:16.943Z,47.07
2018-02-09T18:01:44.501Z,47.03
2018-02-09T18:04:12.548Z,44.87
2018-02-09T18:06:40.132Z,47.80
2018-02-09T18:09:07.583Z,48.50
2018-02-09T18:11:35.094Z,46.90
2018-02-09T18:14:02.606Z,47.47
2018-02-09T18:16:30.101Z,45.40
2018-02-09T18:18:57.621Z,47.90
2018-02-09T18:21:25.117Z,45.10
2018-02-09T18:23:52.638Z,44.67
2018-02-09T18:26:20.056Z,46.27
2018-02-09T18:28:47.655Z,47.03
2018-02-09T18:31:15.215Z,45.30
2018-02-09T18:33:42.720Z,45.30
2018-02-09T18:36:10.129Z,44.47
2018-02-09T18:38:37.691Z,46.53
2018-02-09T18:41:05.247Z,43.67
2018-02-09T18:43:32.680Z,43.93
2018-02-09T18:46:00.264Z,44.90
2018-02-09T18:48:27.822Z,44.27
2018-02-09T18:50:55.485Z,45.43
2018-02-09T18:53:23.767Z,43.00
2018-02-09T18:55:51.321Z,43.53
2018-02-09T18:58:18.818Z,45.33
2018-02-09T19:00:46.223Z,44.00
2018-02-09T19:03:13.794Z,42.93
2018-02-09T19:05:41.457Z,44.80
2018-02-09T19:08:12.907Z,43.23
2018-02-09T19:10:40.466Z,44.60
2018-02-09T19:13:08.027Z,44.20
2018-02-09T19:15:35.526Z,46.10
2018-02-09T19:18:03.160Z,44.43
2018-02-09T19:20:30.707Z,46.17
2018-02-09T19:22:58.264Z,44.53
2018-02-09T19:25:25.823Z,45.07
2018-02-09T19:27:53.486Z,45.03
2018-02-09T19:30:20.942Z,44.40
2018-02-09T19:32:48.604Z,44.57
2018-02-09T19:35:16.163Z,44.00
2018-02-09T19:37:43.666Z,43.20
2018-02-09T19:40:11.236Z,45.37
2018-02-09T19:42:38.739Z,45.90
2018-02-09T19:45:06.299Z,44.47
2018-02-09T19:47:33.858Z,44.50
2018-02-09T19:50:01.456Z,47.63
2018-02-09T19:52:28.977Z,47.73
2018-02-09T19:54:56.536Z,48.33
2018-02-09T19:57:24.096Z,50.10
2018-02-09T19:59:51.620Z,46.33
2018-02-09T20:02:19.216Z,47.80
2018-02-09T20:04:46.774Z,46.80
2018-02-09T20:07:14.335Z,49.00
2018-02-09T20:09:41.785Z,48.10
2018-02-09T20:12:09.299Z,48.10
2018-02-09T20:14:36.807Z,44.17
2018-02-09T20:17:04.366Z,47.13
2018-02-09T20:19:31.784Z,46.17
2018-02-09T20:21:59.385Z,45.30
2018-02-09T20:24:27.250Z,45.10
2018-02-09T20:26:54.846Z,46.20
2018-02-09T20:29:22.369Z,45.20
2018-02-09T20:31:49.826Z,44.33
2018-02-09T20:34:17.385Z,45.13
2018-02-09T20:36:44.945Z,45.37
2018-02-09T20:39:12.401Z,42.93
2018-02-09T20:41:40.269Z,45.23
2018-02-09T20:44:07.828Z,44.70
2018-02-09T20:46:35.387Z,46.70
2018-02-09T20:49:03.029Z,44.90
2018-02-09T20:51:30.507Z,45.23
2018-02-09T20:53:58.097Z,46.93
2018-02-09T20:56:25.728Z,46.00
2018-02-09T20:58:53.287Z,46.50
2018-02-09T21:01:20.846Z,45.10
2018-02-09T21:03:48.918Z,46.17
2018-02-09T21:06:16.477Z,45.70
2018-02-09T21:08:44.037Z,44.37
2018-02-09T21:11:11.596Z,45.70
2018-02-09T21:13:39.093Z,46.80
2018-02-09T21:16:06.715Z,46.97
2018-02-09T21:18:34.279Z,44.77
2018-02-09T21:21:01.833Z,47.07
2018-02-09T21:23:29.700Z,46.30
2018-02-09T21:25:57.260Z,46.43
2018-02-09T21:28:24.822Z,46.30
2018-02-09T21:30:52.378Z,48.23
2018-02-09T21:33:19.873Z,47.63
2018-02-09T21:35:47.332Z,48.50
2018-02-09T21:38:14.955Z,45.83
2018-02-09T21:40:42.514Z,47.90
2018-02-09T21:43:09.926Z,45.27
2018-02-09T21:45:37.363Z,47.23
2018-02-09T21:48:04.874Z,46.00
2018-02-09T21:50:32.382Z,46.87
2018-02-09T21:52:59.916Z,47.17
2018-02-09T21:55:27.359Z,47.50
2018-02-09T21:57:54.919Z,46.03
2018-02-09T22:00:22.411Z,48.00
2018-02-09T22:02:49.887Z,47.90
2018-02-09T22:05:17.328Z,47.73
2018-02-09T22:07:44.848Z,49.87
2018-02-09T22:10:15.619Z,49.17
2018-02-09T22:12:43.142Z,49.17
2018-02-09T22:15:10.701Z,44.97
2018-02-09T22:17:38.801Z,46.10
2018-02-09T22:20:06.333Z,46.60
2018-02-09T22:22:33.896Z,51.63
2018-02-09T22:25:01.555Z,45.67
2018-02-09T22:27:29.113Z,48.37
2018-02-09T22:29:56.570Z,47.90
2018-02-09T22:32:24.231Z,48.43
2018-02-09T22:34:51.792Z,47.67
2018-02-09T22:37:19.351Z,49.30
2018-02-09T22:39:46.848Z,49.27
2018-02-09T22:42:14.296Z,49.37
2018-02-09T22:44:41.772Z,46.57
2018-02-09T22:47:09.388Z,48.17
2018-02-09T22:49:36.943Z,48.10
2018-02-09T22:52:04.503Z,46.47
2018-02-09T22:54:32.061Z,49.33
2018-02-09T22:56:59.560Z,49.83
2018-02-09T22:59:27.005Z,50.60
2018-02-09T23:01:54.741Z,51.17
2018-02-09T23:04:22.300Z,49.00
2018-02-09T23:06:49.860Z,48.97
2018-02-09T23:09:17.316Z,50.43
2018-02-09T23:11:44.877Z,51.40
2018-02-09T23:14:12.372Z,51.03
2018-02-09T23:16:39.828Z,49.73
2018-02-09T23:19:07.462Z,50.50
2018-02-09T23:21:35.011Z,49.60
2018-02-09T23:24:02.508Z,48.80
2018-02-09T23:26:30.131Z,49.53
2018-02-09T23:28:57.690Z,50.20
2018-02-09T23:31:25.250Z,49.93
2018-02-09T23:33:52.810Z,51.80
2018-02-09T23:36:20.368Z,51.70
2018-02-09T23:38:47.928Z,47.60
2018-02-09T23:41:15.448Z,49.00
2018-02-09T23:43:42.944Z,49.03
2018-02-09T23:46:10.504Z,52.37
2018-02-09T23:48:38.105Z,48.80
2018-02-09T23:51:05.623Z,49.83
2018-02-09T23:53:33.226Z,49.80
2018-02-09T23:56:00.741Z,48.90
2018-02-09T23:58:28.236Z,50.30
